Time;durP1;ratioP1;P1;durP2;ratioP2;P2;SDS_P1;SDS_P2;PMS_P1;PMS_P2;Temp;Humidity;BMP_temperature;BMP_pressure;BME280_temperature;BME280_humidity;BME280_pressure;Samples;Min_cycle;Max_cycle;Signal;HPM_P1;HPM_P2
2023/12/17 00:01:44;;;;;;;31.63;19.15;;;8.30;99.90;;;;;;4267601;27;20066;-62
2023/12/17 00:03:47;;;;;;;31.92;19.25;;;8.30;99.90;;;;;;4267690;27;20451;-61
2023/12/17 00:05:49;;;;;;;31.63;20.95;;;8.40;99.90;;;;;;4267442;27;20046;-61
2023/12/17 00:07:51;;;;;;;29.90;18.48;;;8.30;99.90;;;;;;4267504;27;20046;-61
2023/12/17 00:09:53;;;;;;;33.20;22.30;;;8.40;99.90;;;;;;4267165;27;20039;-65
2023/12/17 00:11:55;;;;;;;32.10;21.27;;;8.40;99.90;;;;;;4267621;27;20741;-61
2023/12/17 00:13:59;;;;;;;36.13;21.85;;;8.30;99.90;;;;;;4267449;27;20043;-61
2023/12/17 00:16:01;;;;;;;34.10;21.13;;;8.30;99.90;;;;;;4267220;27;20046;-61
2023/12/17 00:18:05;;;;;;;36.35;21.02;;;8.30;99.90;;;;;;4267216;27;20062;-62
2023/12/17 00:20:08;;;;;;;38.15;22.40;;;8.30;99.90;;;;;;4267393;27;20447;-58
2023/12/17 00:22:10;;;;;;;32.75;19.60;;;8.30;99.90;;;;;;4249097;27;20035;-61
2023/12/17 00:24:13;;;;;;;29.85;20.17;;;8.20;99.90;;;;;;4248755;27;20110;-61
2023/12/17 00:26:15;;;;;;;37.42;21.50;;;8.20;99.90;;;;;;4267295;27;20083;-61
2023/12/17 00:28:17;;;;;;;31.13;19.50;;;8.20;99.90;;;;;;4267476;27;20050;-60
2023/12/17 00:30:20;;;;;;;36.80;21.40;;;8.30;99.90;;;;;;4267272;27;20050;-63
2023/12/17 00:32:24;;;;;;;31.90;18.55;;;8.30;99.90;;;;;;4268222;27;20043;-62
2023/12/17 00:34:26;;;;;;;35.50;21.05;;;8.20;99.90;;;;;;4268136;27;20540;-61
2023/12/17 00:36:29;;;;;;;33.00;20.13;;;8.20;99.90;;;;;;4267619;27;20043;-63
2023/12/17 00:38:31;;;;;;;28.58;18.60;;;8.10;99.90;;;;;;4266879;27;20046;-61
2023/12/17 00:40:33;;;;;;;31.85;19.73;;;8.10;99.90;;;;;;4267606;27;20046;-58
2023/12/17 00:42:35;;;;;;;29.50;19.50;;;8.20;99.90;;;;;;4267461;27;20050;-58
2023/12/17 00:44:38;;;;;;;27.40;18.10;;;8.20;99.90;;;;;;4267411;27;20413;-61
2023/12/17 00:46:41;;;;;;;28.30;18.33;;;8.10;99.90;;;;;;4267184;27;20052;-61
2023/12/17 00:48:43;;;;;;;28.38;17.80;;;8.10;99.90;;;;;;4269735;27;20049;-62
2023/12/17 00:50:45;;;;;;;30.27;18.63;;;8.10;99.90;;;;;;4269356;27;20049;-61
2023/12/17 00:52:47;;;;;;;26.40;15.93;;;8.10;99.90;;;;;;4269052;27;20046;-63
2023/12/17 00:54:49;;;;;;;29.83;19.75;;;8.30;99.90;;;;;;4268146;27;20054;-62
2023/12/17 00:56:51;;;;;;;39.05;22.95;;;8.20;99.90;;;;;;4249883;27;20051;-62
2023/12/17 00:58:54;;;;;;;42.85;24.33;;;8.10;99.90;;;;;;4267750;27;20061;-61
2023/12/17 01:00:56;;;;;;;38.08;24.73;;;8.00;99.90;;;;;;4266767;27;20043;-61
2023/12/17 01:02:59;;;;;;;36.38;22.40;;;7.90;99.90;;;;;;4266542;27;20103;-62
2023/12/17 01:05:02;;;;;;;36.90;22.50;;;7.80;99.90;;;;;;4248192;27;20055;-60
2023/12/17 01:07:04;;;;;;;40.30;22.58;;;7.70;99.90;;;;;;4266242;27;20409;-61
2023/12/17 01:09:06;;;;;;;40.80;23.60;;;7.60;99.90;;;;;;4248008;27;20044;-61
2023/12/17 01:11:08;;;;;;;35.10;21.08;;;7.60;99.90;;;;;;4266367;27;20039;-61
2023/12/17 01:13:10;;;;;;;37.22;23.48;;;7.60;99.90;;;;;;4266467;27;20117;-61
2023/12/17 01:15:12;;;;;;;37.50;21.98;;;7.60;99.90;;;;;;4266437;27;20053;-61
2023/12/17 01:17:15;;;;;;;35.10;21.25;;;7.60;99.90;;;;;;4266633;27;20046;-60
2023/12/17 01:19:19;;;;;;;35.35;21.20;;;7.40;99.90;;;;;;4266450;27;20039;-61
2023/12/17 01:21:21;;;;;;;35.90;21.02;;;7.40;99.90;;;;;;4266187;27;20043;-61
2023/12/17 01:23:23;;;;;;;29.42;19.38;;;7.30;99.90;;;;;;4266414;27;20049;-60
2023/12/17 01:25:25;;;;;;;30.80;20.20;;;7.30;99.90;;;;;;4266439;27;20122;-61
2023/12/17 01:27:27;;;;;;;36.05;21.15;;;7.30;99.90;;;;;;4266480;27;20075;-61
2023/12/17 01:29:29;;;;;;;31.15;20.48;;;7.30;99.90;;;;;;4266429;27;20043;-61
2023/12/17 01:31:31;;;;;;;36.85;22.38;;;7.30;99.90;;;;;;4266592;27;20472;-62
2023/12/17 01:33:33;;;;;;;28.90;20.48;;;7.30;99.90;;;;;;4266415;27;20046;-61
2023/12/17 01:35:37;;;;;;;32.03;21.48;;;7.30;99.90;;;;;;4267162;27;20122;-61
2023/12/17 01:37:39;;;;;;;32.08;20.05;;;7.40;99.90;;;;;;4269046;27;20107;-61
2023/12/17 01:39:41;;;;;;;31.67;20.42;;;7.30;99.90;;;;;;4268001;27;20099;-61
2023/12/17 01:41:46;;;;;;;33.13;22.20;;;7.40;99.90;;;;;;4266424;27;20125;-63
2023/12/17 01:43:48;;;;;;;32.53;20.50;;;7.30;99.90;;;;;;4266018;27;20042;-61
2023/12/17 01:45:51;;;;;;;28.67;20.17;;;7.20;99.90;;;;;;4266061;27;20538;-60
2023/12/17 01:47:53;;;;;;;36.08;21.40;;;7.30;99.90;;;;;;4265869;27;20498;-61
2023/12/17 01:49:56;;;;;;;37.78;19.80;;;7.40;99.90;;;;;;4247554;27;20047;-61
2023/12/17 01:52:00;;;;;;;29.90;19.95;;;7.40;99.90;;;;;;4265534;27;20082;-61
2023/12/17 01:54:02;;;;;;;31.75;20.10;;;7.40;99.90;;;;;;4265735;27;20040;-61
2023/12/17 01:56:06;;;;;;;29.65;19.52;;;7.30;99.90;;;;;;4265611;27;20068;-61
2023/12/17 01:58:09;;;;;;;37.70;19.55;;;7.30;99.90;;;;;;4265816;27;20042;-61
2023/12/17 02:00:12;;;;;;;28.73;19.52;;;7.30;99.90;;;;;;4265670;27;20062;-61
2023/12/17 02:02:15;;;;;;;30.63;20.20;;;7.30;99.90;;;;;;4265676;27;20496;-61
2023/12/17 02:04:20;;;;;;;31.25;18.90;;;7.30;99.90;;;;;;4265851;27;20043;-61
2023/12/17 02:06:22;;;;;;;33.13;20.80;;;7.30;99.90;;;;;;4265002;27;20053;-61
2023/12/17 02:08:26;;;;;;;36.53;20.58;;;7.40;99.90;;;;;;4247451;27;20130;-62
2023/12/17 02:10:28;;;;;;;29.67;17.88;;;7.30;99.90;;;;;;4265633;27;20039;-60
2023/12/17 02:12:30;;;;;;;28.13;17.67;;;7.50;99.90;;;;;;4265437;27;20515;-60
2023/12/17 02:14:32;;;;;;;37.63;21.77;;;7.60;99.90;;;;;;4265557;27;20443;-61
2023/12/17 02:16:34;;;;;;;29.85;20.65;;;7.50;99.90;;;;;;4265472;27;20042;-60
2023/12/17 02:18:36;;;;;;;28.15;19.02;;;7.40;99.90;;;;;;4265380;27;20412;-61
2023/12/17 02:20:39;;;;;;;24.55;16.65;;;7.50;99.90;;;;;;4246705;27;20051;-61
2023/12/17 02:22:42;;;;;;;29.33;18.92;;;7.60;99.90;;;;;;4265340;27;20070;-61
2023/12/17 02:24:46;;;;;;;26.35;18.58;;;7.50;99.90;;;;;;4265378;27;20465;-61
2023/12/17 02:26:48;;;;;;;29.38;19.33;;;7.40;99.90;;;;;;4246904;27;20047;-61
2023/12/17 02:28:50;;;;;;;27.00;18.40;;;7.50;99.90;;;;;;4265545;27;20072;-61
2023/12/17 02:30:52;;;;;;;33.63;18.73;;;7.50;99.90;;;;;;4265856;27;20039;-64
2023/12/17 02:32:54;;;;;;;27.60;18.60;;;7.50;99.90;;;;;;4265970;27;20430;-61
2023/12/17 02:34:56;;;;;;;29.33;18.25;;;7.50;99.90;;;;;;4246792;27;20070;-61
2023/12/17 02:36:58;;;;;;;28.63;17.35;;;7.70;99.90;;;;;;4265259;27;20553;-60
2023/12/17 02:39:01;;;;;;;28.00;17.17;;;7.70;99.90;;;;;;4265021;27;20049;-61
2023/12/17 02:41:04;;;;;;;26.42;18.08;;;7.60;99.90;;;;;;4265166;27;20039;-61
2023/12/17 02:43:07;;;;;;;24.10;17.52;;;7.50;99.90;;;;;;4265207;27;20233;-61
2023/12/17 02:45:10;;;;;;;26.20;16.90;;;7.40;99.90;;;;;;4265203;27;20061;-60
2023/12/17 02:47:12;;;;;;;26.17;17.15;;;7.40;99.90;;;;;;4264408;27;20053;-61
2023/12/17 02:49:14;;;;;;;26.63;17.10;;;7.40;99.90;;;;;;4264696;27;20095;-61
2023/12/17 02:51:16;;;;;;;23.75;16.30;;;7.40;99.90;;;;;;4264929;27;20035;-61
2023/12/17 02:53:18;;;;;;;26.58;16.38;;;7.40;99.90;;;;;;4265608;27;20042;-61
2023/12/17 02:55:20;;;;;;;26.65;17.17;;;7.50;99.90;;;;;;4264894;27;20477;-64
2023/12/17 02:57:25;;;;;;;24.02;15.27;;;7.40;99.90;;;;;;4265055;27;20499;-61
2023/12/17 02:59:27;;;;;;;22.33;15.25;;;7.40;99.90;;;;;;4265102;27;20050;-61
2023/12/17 03:01:29;;;;;;;21.10;14.20;;;7.50;99.90;;;;;;4264980;27;20043;-60
2023/12/17 03:03:31;;;;;;;19.33;13.02;;;7.60;99.90;;;;;;4246530;28;20130;-61
2023/12/17 03:05:33;;;;;;;20.88;12.80;;;7.60;99.90;;;;;;4264947;27;20129;-61
2023/12/17 03:07:36;;;;;;;18.90;13.13;;;7.50;99.90;;;;;;4265027;27;20057;-61
2023/12/17 03:09:38;;;;;;;20.15;13.93;;;7.50;99.90;;;;;;4264734;27;20042;-61
2023/12/17 03:11:41;;;;;;;17.80;13.98;;;7.50;99.90;;;;;;4264788;27;20039;-61
2023/12/17 03:13:45;;;;;;;17.17;12.55;;;7.40;99.90;;;;;;4264950;27;20049;-60
2023/12/17 03:15:47;;;;;;;21.77;14.27;;;7.50;99.90;;;;;;4264732;27;20068;-62
2023/12/17 03:17:49;;;;;;;21.85;13.18;;;7.50;99.90;;;;;;4246479;28;20043;-61
2023/12/17 03:19:52;;;;;;;22.27;14.60;;;7.50;99.90;;;;;;4264849;27;20118;-62
2023/12/17 03:21:54;;;;;;;20.92;13.98;;;7.50;99.90;;;;;;4246353;28;20063;-61
2023/12/17 03:23:56;;;;;;;19.95;13.32;;;7.30;99.90;;;;;;4264653;27;20120;-61
2023/12/17 03:25:58;;;;;;;22.52;14.45;;;7.30;99.90;;;;;;4246651;27;20047;-61
2023/12/17 03:28:01;;;;;;;21.90;13.50;;;7.20;99.90;;;;;;4264710;27;20502;-60
2023/12/17 03:30:06;;;;;;;21.75;13.45;;;7.10;99.90;;;;;;4264598;27;20481;-61
2023/12/17 03:32:08;;;;;;;18.10;12.63;;;7.10;99.90;;;;;;4264240;27;20046;-60
2023/12/17 03:34:10;;;;;;;19.83;12.93;;;7.20;99.90;;;;;;4264372;27;20038;-61
2023/12/17 03:36:14;;;;;;;19.88;12.73;;;7.10;99.90;;;;;;4264209;27;20058;-61
2023/12/17 03:38:16;;;;;;;22.08;12.80;;;7.00;99.90;;;;;;4264714;27;20070;-61
2023/12/17 03:40:18;;;;;;;18.85;12.98;;;7.10;99.90;;;;;;4264698;27;20046;-61
2023/12/17 03:42:20;;;;;;;18.27;11.82;;;7.10;99.90;;;;;;4264814;27;20054;-61
2023/12/17 03:44:23;;;;;;;18.45;12.40;;;7.00;99.90;;;;;;4265135;27;20042;-62
2023/12/17 03:46:26;;;;;;;17.65;12.95;;;7.00;99.90;;;;;;4264709;27;20054;-61
2023/12/17 03:48:28;;;;;;;18.23;12.98;;;6.90;99.90;;;;;;4264991;27;20106;-61
2023/12/17 03:50:30;;;;;;;21.40;13.50;;;6.80;99.90;;;;;;4264849;27;20043;-61
2023/12/17 03:52:33;;;;;;;15.60;11.07;;;6.80;99.90;;;;;;4264827;27;20051;-61
2023/12/17 03:54:35;;;;;;;19.60;14.07;;;6.80;99.90;;;;;;4264688;27;20465;-60
2023/12/17 03:56:37;;;;;;;20.95;13.90;;;6.80;99.90;;;;;;4265246;27;20051;-63
2023/12/17 03:58:39;;;;;;;21.02;15.23;;;6.80;99.90;;;;;;4267843;27;20077;-65
2023/12/17 04:00:41;;;;;;;24.15;14.85;;;6.70;99.90;;;;;;4270232;27;20042;-62
2023/12/17 04:02:45;;;;;;;26.33;15.85;;;6.60;99.90;;;;;;4269538;27;20066;-60
2023/12/17 04:04:47;;;;;;;26.20;16.15;;;6.50;99.90;;;;;;4268581;27;20386;-60
2023/12/17 04:06:49;;;;;;;26.27;18.15;;;6.50;99.90;;;;;;4268308;27;20121;-61
2023/12/17 04:08:52;;;;;;;27.48;17.17;;;6.60;99.90;;;;;;4267817;27;20072;-61
2023/12/17 04:10:56;;;;;;;24.25;17.33;;;6.30;99.90;;;;;;4268013;27;20051;-60
2023/12/17 04:12:59;;;;;;;25.63;17.42;;;6.40;99.90;;;;;;4267817;27;20047;-61
2023/12/17 04:15:01;;;;;;;25.00;17.00;;;6.20;99.90;;;;;;4267949;27;20047;-61
2023/12/17 04:17:03;;;;;;;29.20;18.35;;;6.20;99.90;;;;;;4267776;27;20047;-61
2023/12/17 04:19:07;;;;;;;27.05;16.63;;;6.20;99.90;;;;;;4267672;27;20415;-61
2023/12/17 04:21:09;;;;;;;24.02;16.35;;;6.10;99.90;;;;;;4249128;27;20096;-60
2023/12/17 04:23:11;;;;;;;20.40;14.38;;;6.10;99.90;;;;;;4267339;27;20089;-61
2023/12/17 04:25:13;;;;;;;23.52;15.15;;;6.30;99.90;;;;;;4267379;27;20051;-61
2023/12/17 04:27:15;;;;;;;22.70;16.13;;;6.20;99.90;;;;;;4267378;27;20047;-60
2023/12/17 04:29:18;;;;;;;25.63;14.88;;;6.10;99.90;;;;;;4267436;27;20065;-61
2023/12/17 04:31:20;;;;;;;19.25;14.70;;;6.10;99.90;;;;;;4267032;27;20053;-61
2023/12/17 04:33:23;;;;;;;19.33;13.50;;;6.00;99.90;;;;;;4267297;27;20074;-60
2023/12/17 04:35:26;;;;;;;22.23;12.23;;;6.00;99.90;;;;;;4267089;27;20162;-60
2023/12/17 04:37:28;;;;;;;19.27;13.93;;;6.00;99.90;;;;;;4248633;27;20113;-60
2023/12/17 04:39:30;;;;;;;18.75;13.27;;;6.00;99.90;;;;;;4267115;27;20431;-60
2023/12/17 04:41:33;;;;;;;21.98;14.32;;;5.90;99.90;;;;;;4267143;27;20096;-61
2023/12/17 04:43:35;;;;;;;19.98;12.90;;;5.90;99.90;;;;;;4267405;27;20546;-60
2023/12/17 04:45:38;;;;;;;21.17;13.82;;;5.80;99.90;;;;;;4267071;27;20047;-60
2023/12/17 04:47:40;;;;;;;19.48;12.05;;;5.90;99.90;;;;;;4267371;27;20049;-60
2023/12/17 04:49:42;;;;;;;20.40;11.63;;;6.00;99.90;;;;;;4267674;27;20095;-60
2023/12/17 04:51:46;;;;;;;22.85;13.43;;;5.90;99.90;;;;;;4267286;27;20122;-61
2023/12/17 04:53:48;;;;;;;17.02;11.85;;;5.90;99.90;;;;;;4270008;27;20102;-61
2023/12/17 04:55:50;;;;;;;20.23;11.88;;;6.00;99.90;;;;;;4270855;27;20042;-67
2023/12/17 04:57:52;;;;;;;18.17;11.13;;;6.00;99.90;;;;;;4267805;27;20042;-63
2023/12/17 04:59:56;;;;;;;13.50;10.13;;;5.90;99.90;;;;;;4266538;27;20066;-60
2023/12/17 05:01:59;;;;;;;20.00;12.10;;;5.90;99.90;;;;;;4267099;27;20058;-60
2023/12/17 05:04:01;;;;;;;20.27;11.98;;;5.90;99.90;;;;;;4267168;27;20043;-60
2023/12/17 05:06:04;;;;;;;15.60;11.52;;;5.90;99.90;;;;;;4267290;27;20126;-63
2023/12/17 05:08:07;;;;;;;19.55;12.57;;;5.80;99.90;;;;;;4267134;27;20061;-59
2023/12/17 05:10:10;;;;;;;24.05;12.68;;;5.80;99.90;;;;;;4266339;27;20050;-59
2023/12/17 05:12:12;;;;;;;18.15;13.25;;;5.70;99.90;;;;;;4269454;27;20094;-60
2023/12/17 05:14:15;;;;;;;19.52;12.32;;;5.70;99.90;;;;;;4267250;27;20070;-59
2023/12/17 05:16:17;;;;;;;16.63;11.73;;;5.70;99.90;;;;;;4266587;27;20121;-60
2023/12/17 05:18:19;;;;;;;17.58;11.82;;;5.60;99.90;;;;;;4266821;27;20070;-62
2023/12/17 05:20:21;;;;;;;19.48;13.13;;;5.80;99.90;;;;;;4268947;27;20042;-62
2023/12/17 05:22:24;;;;;;;18.80;13.00;;;5.70;99.90;;;;;;4268214;27;20050;-64
2023/12/17 05:24:27;;;;;;;22.40;14.00;;;5.70;99.90;;;;;;4268712;27;20046;-63
2023/12/17 05:26:29;;;;;;;20.38;13.15;;;5.80;99.90;;;;;;4268377;27;20039;-61
2023/12/17 05:28:31;;;;;;;21.25;14.05;;;5.70;99.90;;;;;;4250287;27;20374;-62
2023/12/17 05:30:33;;;;;;;18.55;11.95;;;5.60;99.90;;;;;;4268011;27;20046;-60
2023/12/17 05:32:35;;;;;;;21.77;12.68;;;5.80;99.90;;;;;;4266811;27;20517;-61
2023/12/17 05:34:37;;;;;;;20.05;13.80;;;5.80;99.90;;;;;;4266410;27;20057;-59
2023/12/17 05:36:39;;;;;;;18.73;12.43;;;5.70;99.90;;;;;;4266852;27;20047;-59
2023/12/17 05:38:42;;;;;;;20.90;13.45;;;5.80;99.90;;;;;;4248526;27;20047;-60
2023/12/17 05:40:45;;;;;;;17.50;11.63;;;5.80;99.90;;;;;;4267701;27;20125;-60
2023/12/17 05:42:47;;;;;;;17.55;13.02;;;5.70;99.90;;;;;;4265988;27;20047;-60
2023/12/17 05:44:50;;;;;;;19.92;12.52;;;5.60;99.90;;;;;;4266484;27;20039;-60
2023/12/17 05:46:52;;;;;;;18.52;12.30;;;5.60;99.90;;;;;;4266742;27;20125;-59
2023/12/17 05:48:54;;;;;;;19.25;11.65;;;5.50;99.90;;;;;;4267896;27;20508;-63
2023/12/17 05:50:56;;;;;;;17.55;11.57;;;5.60;99.90;;;;;;4267299;27;20055;-61
2023/12/17 05:52:59;;;;;;;17.95;11.82;;;5.60;99.90;;;;;;4266158;27;20051;-61
2023/12/17 05:55:02;;;;;;;16.30;11.73;;;5.70;99.90;;;;;;4266159;27;20095;-60
2023/12/17 05:57:06;;;;;;;16.55;10.93;;;5.60;99.90;;;;;;4266104;27;20038;-60
2023/12/17 05:59:13;;;;;;;15.05;11.10;;;5.60;99.90;;;;;;4266131;27;20045;-60
2023/12/17 06:01:15;;;;;;;15.82;10.18;;;5.60;99.90;;;;;;4267411;27;20062;-60
2023/12/17 06:03:17;;;;;;;16.13;11.07;;;5.70;99.90;;;;;;4267494;27;20061;-60
2023/12/17 06:05:20;;;;;;;15.95;10.20;;;5.60;99.90;;;;;;4266261;27;20125;-60
2023/12/17 06:07:22;;;;;;;15.55;11.48;;;5.70;99.90;;;;;;4247476;27;20557;-60
2023/12/17 06:09:29;;;;;;;14.80;10.32;;;5.80;99.90;;;;;;4265849;27;20054;-60
2023/12/17 06:11:32;;;;;;;17.75;11.05;;;5.70;99.90;;;;;;4264647;27;20046;-59
2023/12/17 06:13:36;;;;;;;18.67;11.50;;;5.60;99.90;;;;;;4265745;27;20470;-60
2023/12/17 06:15:38;;;;;;;15.27;10.45;;;5.60;99.90;;;;;;4265725;27;20043;-60
2023/12/17 06:17:42;;;;;;;16.23;11.32;;;5.50;99.90;;;;;;4265772;27;20482;-61
2023/12/17 06:19:44;;;;;;;17.48;11.30;;;5.50;99.90;;;;;;4265497;27;20113;-60
2023/12/17 06:21:46;;;;;;;18.13;12.55;;;5.60;99.90;;;;;;4265086;27;20489;-60
2023/12/17 06:23:50;;;;;;;19.13;11.75;;;5.50;99.90;;;;;;4265550;27;20103;-60
2023/12/17 06:25:52;;;;;;;16.75;11.85;;;5.60;99.90;;;;;;4264973;27;20042;-60
2023/12/17 06:27:55;;;;;;;19.50;12.48;;;5.80;99.90;;;;;;4265266;27;20160;-60
2023/12/17 06:29:58;;;;;;;18.48;11.93;;;5.60;99.90;;;;;;4265436;27;20050;-60
2023/12/17 06:32:02;;;;;;;24.83;15.50;;;5.60;99.90;;;;;;4247028;27;20047;-60
2023/12/17 06:34:07;;;;;;;17.77;13.10;;;5.60;99.90;;;;;;4265250;27;20195;-60
2023/12/17 06:36:09;;;;;;;20.30;13.57;;;5.50;99.90;;;;;;4265373;27;20099;-60
2023/12/17 06:38:11;;;;;;;19.00;11.80;;;5.50;99.90;;;;;;4265251;27;20504;-60
2023/12/17 06:40:16;;;;;;;19.67;12.82;;;5.40;99.90;;;;;;4265317;27;20042;-60
2023/12/17 06:42:18;;;;;;;19.25;12.25;;;5.30;99.90;;;;;;4265034;27;20038;-60
2023/12/17 06:44:23;;;;;;;13.80;9.63;;;5.20;99.90;;;;;;4264428;27;20038;-61
2023/12/17 06:46:27;;;;;;;17.30;11.18;;;5.40;99.90;;;;;;4265488;27;20103;-60
2023/12/17 06:48:29;;;;;;;18.25;13.23;;;5.60;99.90;;;;;;4246702;27;20067;-59
2023/12/17 06:50:31;;;;;;;20.27;13.68;;;5.60;99.90;;;;;;4265206;27;20049;-61
2023/12/17 06:52:35;;;;;;;17.40;12.45;;;5.60;99.90;;;;;;4265255;27;20053;-60
2023/12/17 06:54:37;;;;;;;15.98;11.50;;;5.40;99.90;;;;;;4265349;27;20046;-60
2023/12/17 06:56:39;;;;;;;16.90;11.88;;;5.40;99.90;;;;;;4265049;27;20113;-60
2023/12/17 06:58:41;;;;;;;18.80;11.52;;;5.40;99.90;;;;;;4265397;27;20089;-61
2023/12/17 07:00:43;;;;;;;16.20;11.57;;;5.40;99.90;;;;;;4265629;27;20078;-61
2023/12/17 07:02:47;;;;;;;18.90;12.15;;;5.40;99.90;;;;;;4265131;27;20075;-60
2023/12/17 07:04:49;;;;;;;18.88;12.50;;;5.40;99.90;;;;;;4247612;28;20047;-62
2023/12/17 07:06:51;;;;;;;17.65;12.77;;;5.50;99.90;;;;;;4267047;27;20494;-70
2023/12/17 07:08:53;;;;;;;19.58;13.27;;;5.50;99.90;;;;;;4267333;27;20073;-61
2023/12/17 07:10:55;;;;;;;18.35;11.35;;;5.40;99.90;;;;;;4265381;27;20051;-60
2023/12/17 07:12:57;;;;;;;17.13;12.30;;;5.40;99.90;;;;;;4265274;27;20046;-60
2023/12/17 07:15:00;;;;;;;17.95;11.20;;;5.50;99.90;;;;;;4264796;27;20478;-61
2023/12/17 07:17:02;;;;;;;16.65;12.40;;;5.60;99.90;;;;;;4264883;27;20058;-60
2023/12/17 07:19:05;;;;;;;15.98;10.95;;;5.60;99.90;;;;;;4264694;27;20054;-61
2023/12/17 07:21:08;;;;;;;21.00;13.20;;;5.60;99.90;;;;;;4264638;27;20137;-60
2023/12/17 07:23:10;;;;;;;23.20;14.18;;;5.50;99.90;;;;;;4264712;27;20095;-61
2023/12/17 07:25:12;;;;;;;16.63;12.75;;;5.50;99.90;;;;;;4264608;27;20074;-60
2023/12/17 07:27:14;;;;;;;16.58;11.98;;;5.50;99.90;;;;;;4264783;27;20119;-60
2023/12/17 07:29:16;;;;;;;19.75;13.25;;;5.40;99.90;;;;;;4264953;27;20043;-60
2023/12/17 07:31:18;;;;;;;16.38;12.23;;;5.40;99.90;;;;;;4264561;27;20055;-60
2023/12/17 07:33:21;;;;;;;17.08;11.93;;;5.50;99.90;;;;;;4266082;27;20042;-60
2023/12/17 07:35:24;;;;;;;20.23;13.63;;;5.60;99.90;;;;;;4268164;27;20046;-60
2023/12/17 07:37:26;;;;;;;19.90;13.80;;;5.50;99.90;;;;;;4267786;27;20055;-60
2023/12/17 07:39:28;;;;;;;19.08;14.02;;;5.50;99.90;;;;;;4267796;27;20462;-60
2023/12/17 07:41:31;;;;;;;19.95;13.75;;;5.40;99.90;;;;;;4267869;27;20050;-60
2023/12/17 07:43:34;;;;;;;21.15;12.90;;;5.40;99.90;;;;;;4268093;27;20061;-60
2023/12/17 07:45:37;;;;;;;26.50;15.65;;;5.50;99.90;;;;;;4268007;27;20130;-61
2023/12/17 07:47:39;;;;;;;25.05;14.10;;;5.50;99.90;;;;;;4268014;27;20164;-60
2023/12/17 07:49:45;;;;;;;20.45;13.13;;;5.40;99.90;;;;;;4267858;27;20061;-60
2023/12/17 07:51:49;;;;;;;24.92;14.73;;;5.50;99.90;;;;;;4267949;27;20042;-60
2023/12/17 07:53:51;;;;;;;20.73;13.85;;;5.50;99.90;;;;;;4267341;27;20050;-60
2023/12/17 07:55:57;;;;;;;20.25;13.15;;;5.50;99.90;;;;;;4267724;27;20118;-60
2023/12/17 07:57:59;;;;;;;27.95;13.90;;;5.70;99.90;;;;;;4249272;27;20047;-60
2023/12/17 08:00:02;;;;;;;17.83;12.73;;;5.80;99.90;;;;;;4249250;27;20039;-60
2023/12/17 08:02:04;;;;;;;22.23;15.60;;;5.90;99.90;;;;;;4267937;27;20396;-60
2023/12/17 08:04:08;;;;;;;22.33;15.27;;;5.80;99.90;;;;;;4268034;27;20481;-60
2023/12/17 08:06:10;;;;;;;32.50;16.45;;;5.60;99.90;;;;;;4267859;27;20099;-60
2023/12/17 08:08:13;;;;;;;21.55;14.88;;;5.50;99.90;;;;;;4267820;27;20146;-60
2023/12/17 08:10:15;;;;;;;24.15;14.32;;;5.50;99.90;;;;;;4268186;27;20131;-60
2023/12/17 08:12:18;;;;;;;24.50;15.88;;;5.50;99.90;;;;;;4267971;27;20050;-60
2023/12/17 08:14:20;;;;;;;24.95;16.50;;;5.60;99.90;;;;;;4269400;27;20057;-61
2023/12/17 08:16:22;;;;;;;27.38;16.60;;;5.70;99.90;;;;;;4268936;27;20046;-60
2023/12/17 08:18:24;;;;;;;28.50;17.70;;;5.60;99.90;;;;;;4267518;27;20412;-60
2023/12/17 08:20:26;;;;;;;23.80;15.30;;;5.60;99.90;;;;;;4267170;27;20061;-60
2023/12/17 08:22:28;;;;;;;25.73;16.38;;;5.80;99.90;;;;;;4267136;27;20046;-61
2023/12/17 08:24:32;;;;;;;26.27;16.73;;;5.80;99.90;;;;;;4267523;27;20075;-59
2023/12/17 08:26:34;;;;;;;23.52;16.27;;;5.70;99.90;;;;;;4267582;27;20043;-60
2023/12/17 08:28:36;;;;;;;23.42;16.73;;;5.60;99.90;;;;;;4267303;27;20039;-59
2023/12/17 08:30:41;;;;;;;25.83;16.33;;;5.50;99.90;;;;;;4267040;27;20046;-60
2023/12/17 08:32:45;;;;;;;22.67;16.35;;;5.50;99.90;;;;;;4267396;27;20374;-60
2023/12/17 08:34:47;;;;;;;23.20;14.90;;;5.40;99.90;;;;;;4267151;27;20462;-59
2023/12/17 08:36:50;;;;;;;22.45;15.90;;;5.60;99.90;;;;;;4266723;27;20476;-59
2023/12/17 08:38:52;;;;;;;21.45;14.90;;;5.40;99.90;;;;;;4267323;27;20600;-59
2023/12/17 08:40:55;;;;;;;22.23;15.20;;;5.40;99.90;;;;;;4267164;27;20111;-59
2023/12/17 08:42:57;;;;;;;20.50;14.65;;;5.40;99.90;;;;;;4266948;27;20161;-60
2023/12/17 08:44:59;;;;;;;22.15;14.63;;;5.40;99.90;;;;;;4267156;27;20074;-60
2023/12/17 08:47:02;;;;;;;21.05;14.07;;;5.40;99.90;;;;;;4267022;27;20039;-60
2023/12/17 08:49:06;;;;;;;18.67;13.45;;;5.40;99.90;;;;;;4266916;27;20046;-59
2023/12/17 08:51:08;;;;;;;16.23;12.65;;;5.40;99.90;;;;;;4266717;27;20485;-60
2023/12/17 08:53:10;;;;;;;18.90;13.40;;;5.50;99.90;;;;;;4266887;27;20047;-60
2023/12/17 08:55:12;;;;;;;19.95;14.30;;;5.70;99.90;;;;;;4266962;27;20053;-60
2023/12/17 08:57:16;;;;;;;19.95;13.07;;;5.70;99.90;;;;;;4266840;27;20099;-60
2023/12/17 08:59:19;;;;;;;19.60;13.85;;;5.70;99.90;;;;;;4267085;27;20481;-60
2023/12/17 09:01:21;;;;;;;20.23;15.15;;;5.70;99.90;;;;;;4266838;27;20115;-60
2023/12/17 09:03:23;;;;;;;18.27;13.25;;;5.70;99.90;;;;;;4266658;27;20051;-59
2023/12/17 09:05:25;;;;;;;20.13;13.45;;;5.60;99.90;;;;;;4266521;27;20095;-60
2023/12/17 09:07:27;;;;;;;21.48;15.38;;;5.50;99.90;;;;;;4266729;27;20046;-59
2023/12/17 09:09:31;;;;;;;20.42;13.02;;;5.60;99.90;;;;;;4266638;27;20073;-59
2023/12/17 09:11:33;;;;;;;19.55;13.50;;;5.60;99.90;;;;;;4266617;27;20070;-60
2023/12/17 09:13:37;;;;;;;19.88;14.55;;;5.70;99.90;;;;;;4266684;27;20050;-60
2023/12/17 09:15:40;;;;;;;17.42;13.23;;;5.60;99.90;;;;;;4249460;27;20058;-60
2023/12/17 09:17:43;;;;;;;17.50;11.88;;;5.60;99.90;;;;;;4267375;27;20135;-61
2023/12/17 09:19:47;;;;;;;15.40;10.80;;;5.60;99.90;;;;;;4266946;27;20046;-61
2023/12/17 09:21:49;;;;;;;19.35;13.70;;;5.60;99.90;;;;;;4267358;27;20062;-64
2023/12/17 09:23:51;;;;;;;20.20;14.23;;;5.50;99.90;;;;;;4267053;27;20047;-60
2023/12/17 09:25:53;;;;;;;19.02;13.80;;;5.50;99.90;;;;;;4266620;27;20047;-60
2023/12/17 09:27:55;;;;;;;17.80;13.25;;;5.80;99.90;;;;;;4248339;27;20047;-60
2023/12/17 09:29:59;;;;;;;20.73;13.68;;;6.10;99.90;;;;;;4266590;27;20130;-60
2023/12/17 09:32:01;;;;;;;20.40;13.15;;;6.00;99.90;;;;;;4266348;27;20047;-60
2023/12/17 09:34:06;;;;;;;17.67;12.60;;;6.00;99.90;;;;;;4266398;27;20074;-60
2023/12/17 09:36:09;;;;;;;16.42;12.23;;;6.00;99.90;;;;;;4265696;27;20059;-60
2023/12/17 09:38:11;;;;;;;18.27;12.48;;;6.10;99.90;;;;;;4266338;27;20043;-61
2023/12/17 09:40:15;;;;;;;16.60;11.55;;;6.20;99.90;;;;;;4266121;27;20049;-60
2023/12/17 09:42:22;;;;;;;23.75;13.77;;;6.30;99.90;;;;;;4266076;27;20069;-60
2023/12/17 09:44:24;;;;;;;16.98;10.85;;;6.30;99.90;;;;;;4265840;27;20099;-61
2023/12/17 09:46:27;;;;;;;18.23;13.45;;;6.60;99.90;;;;;;4266031;27;20050;-62
2023/12/17 09:48:30;;;;;;;13.95;11.02;;;6.50;99.90;;;;;;4266130;27;20058;-60
2023/12/17 09:50:32;;;;;;;17.98;12.57;;;6.50;99.90;;;;;;4265903;27;20042;-61
2023/12/17 09:52:39;;;;;;;18.15;12.68;;;6.60;99.90;;;;;;4266165;27;20047;-60
2023/12/17 09:54:41;;;;;;;17.23;12.48;;;6.40;99.90;;;;;;4265839;27;20039;-60
2023/12/17 09:56:46;;;;;;;14.93;12.27;;;6.40;99.90;;;;;;4265664;27;20478;-60
2023/12/17 09:58:49;;;;;;;18.30;12.45;;;6.40;99.90;;;;;;4266416;27;20126;-60
2023/12/17 10:00:51;;;;;;;16.42;12.18;;;6.30;99.90;;;;;;4266223;27;20049;-60
2023/12/17 10:03:02;;;;;;;17.85;12.38;;;6.30;99.90;;;;;;4266406;27;20075;-61
2023/12/17 10:05:06;;;;;;;16.80;11.02;;;6.30;99.90;;;;;;4265083;27;20097;-60
2023/12/17 10:07:09;;;;;;;21.23;12.60;;;6.40;99.90;;;;;;4266728;27;20054;-60
2023/12/17 10:09:15;;;;;;;16.85;10.70;;;6.50;99.90;;;;;;4266616;27;20066;-60
2023/12/17 10:11:18;;;;;;;18.02;12.15;;;6.40;99.90;;;;;;4266872;27;20038;-61
2023/12/17 10:13:21;;;;;;;19.73;13.13;;;6.60;99.90;;;;;;4268792;27;20062;-60
2023/12/17 10:15:24;;;;;;;15.38;11.52;;;6.60;99.90;;;;;;4250413;27;20047;-64
2023/12/17 10:17:26;;;;;;;19.65;12.00;;;6.70;99.90;;;;;;4267627;27;20046;-61
2023/12/17 10:19:30;;;;;;;17.20;11.93;;;6.80;99.90;;;;;;4265520;27;20043;-59
2023/12/17 10:21:32;;;;;;;19.67;11.48;;;6.90;99.90;;;;;;4247412;27;20531;-61
2023/12/17 10:23:46;;;;;;;17.35;11.05;;;6.80;99.80;;;;;;4265766;27;20050;-60
2023/12/17 10:25:58;;;;;;;12.93;8.13;;;7.00;99.90;;;;;;4265696;27;20047;-61
2023/12/17 10:28:01;;;;;;;19.15;11.65;;;7.00;99.90;;;;;;4265552;27;20424;-59
2023/12/17 10:30:06;;;;;;;18.27;10.65;;;7.00;99.80;;;;;;4265778;27;20043;-60